createdAt,value
2023-05-27T00:00:15.953Z,101843.97
2023-05-27T00:02:43.063Z,101842.00
2023-05-27T00:05:09.965Z,101840.34
2023-05-27T00:07:36.692Z,101837.56
2023-05-27T00:10:04.248Z,101841.34
2023-05-27T00:12:30.955Z,101836.25
2023-05-27T00:14:57.735Z,101845.16
2023-05-27T00:17:24.576Z,101825.38
2023-05-27T00:19:52.838Z,101825.69
2023-05-27T00:22:19.620Z,101826.03
2023-05-27T00:24:46.410Z,101820.63
2023-05-27T00:27:13.196Z,101822.91
2023-05-27T00:29:40.253Z,101832.47
2023-05-27T00:32:07.049Z,101827.19
2023-05-27T00:34:35.498Z,101832.78
2023-05-27T00:37:02.609Z,101824.72
2023-05-27T00:39:29.454Z,101831.16
2023-05-27T00:41:56.363Z,101821.09
2023-05-27T00:44:23.263Z,101823.06
2023-05-27T00:46:50.271Z,101825.03
2023-05-27T00:49:18.303Z,101816.97
2023-05-27T00:51:45.799Z,101815.00
2023-05-27T00:54:13.314Z,101817.28
2023-05-27T00:56:40.353Z,101816.47
2023-05-27T00:59:07.382Z,101815.66
2023-05-27T01:01:37.780Z,101820.91
2023-05-27T01:04:05.846Z,101815.97
2023-05-27T01:06:48.534Z,101812.03
2023-05-27T01:09:24.219Z,101822.06
2023-05-27T01:12:09.032Z,101818.78
2023-05-27T01:14:39.337Z,101818.28
2023-05-27T01:17:07.938Z,101832.25
2023-05-27T01:19:37.738Z,101823.03
2023-05-27T01:22:08.517Z,101825.00
2023-05-27T01:24:35.223Z,101817.78
2023-05-27T01:27:02.684Z,101813.81
2023-05-27T01:29:30.876Z,101793.75
2023-05-27T01:32:09.143Z,101796.88
2023-05-27T01:34:47.997Z,101806.59
2023-05-27T01:37:20.076Z,101803.94
2023-05-27T01:39:48.954Z,101800.50
2023-05-27T01:42:16.968Z,101800.81
2023-05-27T01:44:45.213Z,101800.50
2023-05-27T01:47:11.968Z,101801.47
2023-05-27T01:49:38.870Z,101791.13
2023-05-27T01:52:05.978Z,101788.31
2023-05-27T01:54:32.868Z,101795.69
2023-05-27T01:56:59.776Z,101792.91
2023-05-27T01:59:26.803Z,101780.59
2023-05-27T02:01:53.511Z,101779.75
2023-05-27T02:04:20.774Z,101780.41
2023-05-27T02:06:47.645Z,101788.44
2023-05-27T02:09:17.676Z,101786.34
2023-05-27T02:11:44.523Z,101784.50
2023-05-27T02:14:11.978Z,101785.66
2023-05-27T02:16:40.611Z,101786.00
2023-05-27T02:19:07.880Z,101788.59
2023-05-27T02:21:36.680Z,101782.53
2023-05-27T02:24:03.814Z,101778.59
2023-05-27T02:26:30.775Z,101789.78
2023-05-27T02:28:57.628Z,101777.59
2023-05-27T02:31:24.576Z,101772.81
2023-05-27T02:33:51.522Z,101781.41
2023-05-27T02:36:18.482Z,101770.34
2023-05-27T02:38:46.052Z,101775.44
2023-05-27T02:41:12.946Z,101771.81
2023-05-27T02:43:39.875Z,101780.69
2023-05-27T02:46:06.877Z,101775.44
2023-05-27T02:48:33.901Z,101777.22
2023-05-27T02:51:00.819Z,101778.56
2023-05-27T02:53:27.595Z,101776.41
2023-05-27T02:55:54.456Z,101772.28
2023-05-27T02:58:21.244Z,101772.28
2023-05-27T03:00:48.052Z,101770.00
2023-05-27T03:03:16.602Z,101778.53
2023-05-27T03:05:43.504Z,101776.25
2023-05-27T03:08:10.346Z,101780.81
2023-05-27T03:10:37.040Z,101779.97
2023-05-27T03:13:04.008Z,101774.72
2023-05-27T03:15:31.128Z,101777.19
2023-05-27T03:17:58.530Z,101769.63
2023-05-27T03:20:25.731Z,101772.59
2023-05-27T03:22:53.010Z,101774.25
2023-05-27T03:25:19.918Z,101763.72
2023-05-27T03:27:46.957Z,101766.16
2023-05-27T03:30:16.219Z,101771.56
2023-05-27T03:32:49.446Z,101771.91
2023-05-27T03:35:20.936Z,101773.88
2023-05-27T03:37:47.653Z,101771.06
2023-05-27T03:40:14.448Z,101771.56
2023-05-27T03:42:41.242Z,101770.59
2023-05-27T03:45:08.750Z,101771.41
2023-05-27T03:47:37.152Z,101771.41
2023-05-27T03:50:05.157Z,101771.72
2023-05-27T03:52:32.067Z,101764.50
2023-05-27T03:54:58.732Z,101774.03
2023-05-27T03:57:25.396Z,101770.59
2023-05-27T03:59:52.152Z,101772.06
2023-05-27T04:02:19.004Z,101779.91
2023-05-27T04:04:45.912Z,101768.25
2023-05-27T04:07:14.192Z,101770.22
2023-05-27T04:09:43.692Z,101759.03
2023-05-27T04:12:11.279Z,101764.63
2023-05-27T04:14:38.148Z,101766.28
2023-05-27T04:17:07.435Z,101763.00
2023-05-27T04:19:36.240Z,101767.25
2023-05-27T04:22:03.231Z,101768.41
2023-05-27T04:24:32.802Z,101762.16
2023-05-27T04:27:00.260Z,101766.94
2023-05-27T04:29:28.570Z,101767.56
2023-05-27T04:31:57.715Z,101776.44
2023-05-27T04:34:25.013Z,101769.53
2023-05-27T04:36:52.533Z,101762.63
2023-05-27T04:39:22.809Z,101768.69
2023-05-27T04:41:50.261Z,101764.28
2023-05-27T04:44:27.980Z,101762.63
2023-05-27T04:46:56.767Z,101764.28
2023-05-27T04:49:23.769Z,101763.75
2023-05-27T04:51:50.907Z,101757.34
2023-05-27T04:54:22.383Z,101759.94
2023-05-27T04:56:52.995Z,101762.75
2023-05-27T04:59:30.590Z,101758.78
2023-05-27T05:02:22.619Z,101763.75
2023-05-27T05:05:11.232Z,101758.78
2023-05-27T05:07:39.115Z,101759.63
2023-05-27T05:10:07.297Z,101756.00
2023-05-27T05:12:38.361Z,101751.06
2023-05-27T05:15:06.936Z,101752.69
2023-05-27T05:17:33.706Z,101753.03
2023-05-27T05:20:00.656Z,101753.69
2023-05-27T05:22:29.879Z,101751.72
2023-05-27T05:24:57.023Z,101755.66
2023-05-27T05:27:34.465Z,101761.22
2023-05-27T05:30:03.962Z,101759.06
2023-05-27T05:32:30.719Z,101747.75
2023-05-27T05:34:57.842Z,101755.00
2023-05-27T05:37:25.628Z,101751.72
2023-05-27T05:39:52.814Z,101761.72
2023-05-27T05:42:19.744Z,101761.22
2023-05-27T05:44:46.950Z,101754.63
2023-05-27T05:47:14.070Z,101767.13
2023-05-27T05:49:46.456Z,101762.88
2023-05-27T05:52:13.674Z,101758.44
2023-05-27T05:54:40.982Z,101756.47
2023-05-27T05:57:07.972Z,101751.06
2023-05-27T05:59:34.714Z,101756.47
2023-05-27T06:02:01.702Z,101756.66
2023-05-27T06:04:30.044Z,101762.25
2023-05-27T06:06:58.236Z,101753.34
2023-05-27T06:09:35.204Z,101753.88
2023-05-27T06:12:07.414Z,101756.00
2023-05-27T06:14:41.263Z,101751.56
2023-05-27T06:17:08.942Z,101748.09
2023-05-27T06:19:35.720Z,101748.09
2023-05-27T06:22:03.526Z,101757.78
2023-05-27T06:24:59.374Z,101751.06
2023-05-27T06:27:40.692Z,101758.94
2023-05-27T06:30:09.867Z,101744.03
2023-05-27T06:32:40.460Z,101743.19
2023-05-27T06:35:07.700Z,101740.41
2023-05-27T06:37:35.438Z,101732.72
2023-05-27T06:40:02.250Z,101733.03
2023-05-27T06:42:29.397Z,101734.81
2023-05-27T06:45:16.968Z,101734.69
2023-05-27T06:47:45.509Z,101727.72
2023-05-27T06:50:12.794Z,101727.06
2023-05-27T06:52:39.604Z,101727.06
2023-05-27T06:55:22.947Z,101728.06
2023-05-27T06:58:04.736Z,101730.84
2023-05-27T07:00:44.365Z,101732.00
2023-05-27T07:03:21.884Z,101720.84
2023-05-27T07:05:49.043Z,101721.84
2023-05-27T07:08:16.476Z,101719.59
2023-05-27T07:10:44.363Z,101720.19
2023-05-27T07:13:11.535Z,101709.03
2023-05-27T07:15:52.251Z,101711.28
2023-05-27T07:18:19.018Z,101715.25
2023-05-27T07:20:46.579Z,101708.50
2023-05-27T07:23:16.728Z,101709.03
2023-05-27T07:25:47.203Z,101716.78
2023-05-27T07:28:14.150Z,101711.69
2023-05-27T07:30:45.829Z,101714.19
2023-05-27T07:33:12.824Z,101703.31
2023-05-27T07:35:39.668Z,101698.69
2023-05-27T07:38:06.401Z,101702.50
2023-05-27T07:40:33.072Z,101697.25
2023-05-27T07:42:59.726Z,101694.94
2023-05-27T07:45:26.743Z,101687.19
2023-05-27T07:47:53.595Z,101686.25
2023-05-27T07:50:20.803Z,101688.69
2023-05-27T07:53:08.128Z,101673.22
2023-05-27T07:55:37.068Z,101667.66
2023-05-27T07:58:04.778Z,101666.34
2023-05-27T08:00:44.993Z,101668.00
2023-05-27T08:03:12.158Z,101666.34
2023-05-27T08:05:57.777Z,101669.16
2023-05-27T08:08:43.504Z,101662.41
2023-05-27T08:11:13.066Z,101660.41
2023-05-27T08:13:50.401Z,101655.50
2023-05-27T08:16:36.019Z,101651.91
2023-05-27T08:19:37.974Z,101641.22
2023-05-27T08:22:15.141Z,101649.94
2023-05-27T08:25:08.325Z,101646.78
2023-05-27T08:27:58.276Z,101645.31
2023-05-27T08:30:35.721Z,101652.88
2023-05-27T08:33:11.200Z,101640.38
2023-05-27T08:35:38.124Z,101634.31
2023-05-27T08:38:05.912Z,101636.75
2023-05-27T08:40:37.327Z,101629.53
2023-05-27T08:43:06.159Z,101627.25
2023-05-27T08:45:36.131Z,101627.25
2023-05-27T08:48:03.386Z,101625.75
2023-05-27T08:50:36.145Z,101620.19
2023-05-27T08:53:04.563Z,101627.25
2023-05-27T08:55:33.517Z,101608.03
2023-05-27T08:58:00.584Z,101605.53
2023-05-27T09:00:30.955Z,101612.78
2023-05-27T09:03:05.429Z,101602.75
2023-05-27T09:05:34.726Z,101597.50
2023-05-27T09:08:01.581Z,101595.38
2023-05-27T09:10:38.589Z,101589.78
2023-05-27T09:13:05.991Z,101592.22
2023-05-27T09:15:34.235Z,101587.78
2023-05-27T09:18:01.113Z,101586.47
2023-05-27T09:20:29.097Z,101576.94
2023-05-27T09:22:59.721Z,101577.78
2023-05-27T09:25:27.212Z,101573.03
2023-05-27T09:27:54.632Z,101572.00
2023-05-27T09:30:23.270Z,101573.50
2023-05-27T09:32:50.505Z,101573.03
2023-05-27T09:35:18.244Z,101555.44
2023-05-27T09:37:46.934Z,101567.09
2023-05-27T09:40:18.020Z,101565.13
2023-05-27T09:42:49.136Z,101556.25
2023-05-27T09:45:21.775Z,101556.25
2023-05-27T09:47:50.782Z,101560.38
2023-05-27T09:50:18.660Z,101557.88
2023-05-27T09:52:54.189Z,101543.09
2023-05-27T09:55:31.636Z,101558.22
2023-05-27T09:57:58.709Z,101537.03
2023-05-27T10:00:28.276Z,101538.03
2023-05-27T10:02:58.669Z,101525.53
2023-05-27T10:05:27.703Z,101531.25
2023-05-27T10:08:12.236Z,101520.09
2023-05-27T10:10:41.833Z,101529.81
2023-05-27T10:13:09.513Z,101517.81
2023-05-27T10:15:36.845Z,101513.84
2023-05-27T10:18:10.800Z,101518.09
2023-05-27T10:20:39.692Z,101515.50
2023-05-27T10:23:30.249Z,101519.28
2023-05-27T10:26:02.437Z,101502.50
2023-05-27T10:28:32.382Z,101516.31
2023-05-27T10:31:30.524Z,101495.56
2023-05-27T10:33:59.127Z,101491.31
2023-05-27T10:36:35.034Z,101501.50
2023-05-27T10:39:12.821Z,101489.97
2023-05-27T10:41:59.905Z,101497.22
2023-05-27T10:44:30.408Z,101493.59
2023-05-27T10:47:12.279Z,101490.31
2023-05-27T10:49:40.884Z,101492.47
2023-05-27T10:52:13.948Z,101491.78
2023-05-27T10:54:42.342Z,101503.97
2023-05-27T10:57:09.274Z,101481.44
2023-05-27T10:59:51.344Z,101488.81
2023-05-27T11:02:19.127Z,101477.31
2023-05-27T11:04:46.343Z,101464.97
2023-05-27T11:07:18.229Z,101478.28
2023-05-27T11:09:49.569Z,101471.19
2023-05-27T11:12:17.762Z,101459.69
2023-05-27T11:14:45.936Z,101462.97
2023-05-27T11:17:15.781Z,101469.22
2023-05-27T11:19:43.816Z,101468.56
2023-05-27T11:22:11.617Z,101465.94
2023-05-27T11:24:38.942Z,101454.25
2023-05-27T11:27:15.629Z,101467.06
2023-05-27T11:29:52.538Z,101450.28
2023-05-27T11:32:20.266Z,101449.63
2023-05-27T11:34:48.030Z,101443.38
2023-05-27T11:37:15.158Z,101450.09
2023-05-27T11:39:52.807Z,101447.81
2023-05-27T11:42:26.018Z,101446.31
2023-05-27T11:44:54.584Z,101444.34
2023-05-27T11:47:22.983Z,101428.06
2023-05-27T11:49:50.626Z,101432.50
2023-05-27T11:52:18.062Z,101426.91
2023-05-27T11:54:50.379Z,101428.53
2023-05-27T11:57:25.395Z,101423.44
2023-05-27T11:59:52.395Z,101411.06
2023-05-27T12:02:22.370Z,101409.56
2023-05-27T12:04:49.763Z,101409.94
2023-05-27T12:07:20.545Z,101404.81
2023-05-27T12:09:50.088Z,101395.28
2023-05-27T12:12:17.002Z,101385.72
2023-05-27T12:14:43.820Z,101385.41
2023-05-27T12:17:10.514Z,101379.97
2023-05-27T12:19:37.580Z,101373.19
2023-05-27T12:22:04.455Z,101363.66
2023-05-27T12:24:32.017Z,101368.94
2023-05-27T12:26:59.186Z,101367.44
2023-05-27T12:29:27.300Z,101372.69
2023-05-27T12:31:54.084Z,101362.31
2023-05-27T12:34:21.120Z,101358.38
2023-05-27T12:36:48.901Z,101365.59
2023-05-27T12:39:16.760Z,101357.69
2023-05-27T12:41:43.800Z,101361.28
2023-05-27T12:44:10.485Z,101352.09
2023-05-27T12:46:37.407Z,101351.38
2023-05-27T12:49:04.129Z,101354.69
2023-05-27T12:51:31.853Z,101353.88
2023-05-27T12:53:58.704Z,101346.78
2023-05-27T12:56:25.684Z,101344.78
2023-05-27T12:58:52.695Z,101346.09
2023-05-27T13:01:19.506Z,101334.53
2023-05-27T13:03:46.472Z,101340.97
2023-05-27T13:06:13.355Z,101336.66
2023-05-27T13:08:40.292Z,101336.81
2023-05-27T13:11:07.599Z,101325.16
2023-05-27T13:13:34.488Z,101324.00
2023-05-27T13:16:01.282Z,101332.38
2023-05-27T13:18:28.220Z,101323.28
2023-05-27T13:20:55.030Z,101315.38
2023-05-27T13:23:23.126Z,101312.22
2023-05-27T13:25:50.185Z,101321.13
2023-05-27T13:28:17.232Z,101303.50
2023-05-27T13:30:44.136Z,101306.78
2023-05-27T13:33:10.881Z,101310.03
2023-05-27T13:35:37.938Z,101315.63
2023-05-27T13:38:05.212Z,101307.75
2023-05-27T13:40:32.091Z,101295.03
2023-05-27T13:42:59.017Z,101299.47
2023-05-27T13:45:26.061Z,101284.31
2023-05-27T13:47:53.177Z,101302.41
2023-05-27T13:50:20.084Z,101287.72
2023-05-27T13:52:47.243Z,101280.13
2023-05-27T13:55:14.300Z,101282.59
2023-05-27T13:57:41.313Z,101285.38
2023-05-27T14:00:08.867Z,101279.00
2023-05-27T14:02:35.822Z,101270.22
2023-05-27T14:05:03.441Z,101269.19
2023-05-27T14:07:30.307Z,101270.00
2023-05-27T14:09:58.077Z,101264.41
2023-05-27T14:12:26.050Z,101262.22
2023-05-27T14:14:52.809Z,101255.00
2023-05-27T14:17:19.669Z,101248.81
2023-05-27T14:19:46.516Z,101244.72
2023-05-27T14:22:13.226Z,101246.22
2023-05-27T14:24:39.991Z,101245.09
2023-05-27T14:27:07.981Z,101237.59
2023-05-27T14:29:35.041Z,101219.44
2023-05-27T14:32:01.877Z,101227.81
2023-05-27T14:34:28.672Z,101217.81
2023-05-27T14:36:55.571Z,101211.50
2023-05-27T14:39:22.366Z,101218.91
2023-05-27T14:41:49.172Z,101216.44
2023-05-27T14:44:16.363Z,101219.25
2023-05-27T14:46:43.309Z,101209.19
2023-05-27T14:49:10.271Z,101206.41
2023-05-27T14:51:37.404Z,101214.13
2023-05-27T14:54:04.395Z,101210.16
2023-05-27T14:56:31.307Z,101219.03
2023-05-27T14:58:58.234Z,101207.47
2023-05-27T15:01:25.096Z,101211.91
2023-05-27T15:03:52.467Z,101208.75
2023-05-27T15:06:19.589Z,101211.34
2023-05-27T15:08:46.293Z,101212.84
2023-05-27T15:11:13.254Z,101209.69
2023-05-27T15:13:40.119Z,101211.34
2023-05-27T15:16:07.122Z,101204.22
2023-05-27T15:18:33.839Z,101198.63
2023-05-27T15:21:00.552Z,101211.56
2023-05-27T15:23:27.363Z,101198.03
2023-05-27T15:25:57.296Z,101199.66
2023-05-27T15:28:24.032Z,101194.06
2023-05-27T15:30:52.847Z,101205.72
2023-05-27T15:33:20.036Z,101197.81
2023-05-27T15:35:47.295Z,101194.19
2023-05-27T15:38:14.698Z,101199.09
2023-05-27T15:40:46.071Z,101190.31
2023-05-27T15:43:13.167Z,101181.91
2023-05-27T15:45:49.123Z,101181.59
2023-05-27T15:48:23.061Z,101187.19
2023-05-27T15:50:51.836Z,101186.81
2023-05-27T15:53:18.679Z,101181.72
2023-05-27T15:55:45.384Z,101182.50
2023-05-27T15:58:12.302Z,101175.41
2023-05-27T16:00:39.202Z,101181.47
2023-05-27T16:03:05.984Z,101172.59
2023-05-27T16:05:33.052Z,101167.44
2023-05-27T16:08:00.013Z,101165.09
2023-05-27T16:10:26.817Z,101165.91
2023-05-27T16:12:53.701Z,101166.38
2023-05-27T16:15:20.705Z,101167.66
2023-05-27T16:17:47.601Z,101156.44
2023-05-27T16:20:14.578Z,101162.53
2023-05-27T16:22:41.669Z,101163.69
2023-05-27T16:25:09.807Z,101166.97
2023-05-27T16:27:36.691Z,101160.19
2023-05-27T16:30:03.660Z,101154.22
2023-05-27T16:32:30.447Z,101147.00
2023-05-27T16:34:57.413Z,101151.78
2023-05-27T16:37:24.165Z,101154.22
2023-05-27T16:39:51.055Z,101145.47
2023-05-27T16:42:17.841Z,101147.91
2023-05-27T16:44:44.765Z,101147.56
2023-05-27T16:47:11.473Z,101146.38
2023-05-27T16:49:38.128Z,101139.16
2023-05-27T16:52:04.844Z,101136.81
2023-05-27T16:54:31.577Z,101136.81
2023-05-27T16:56:58.386Z,101140.06
2023-05-27T16:59:25.173Z,101134.47
2023-05-27T17:01:52.384Z,101136.13
2023-05-27T17:04:19.465Z,101134.13
2023-05-27T17:06:47.937Z,101133.75
2023-05-27T17:09:14.815Z,101125.34
2023-05-27T17:11:42.463Z,101131.44
2023-05-27T17:14:09.724Z,101131.44
2023-05-27T17:16:36.847Z,101131.44
2023-05-27T17:19:05.024Z,101134.25
2023-05-27T17:21:31.982Z,101133.06
2023-05-27T17:23:58.678Z,101128.63
2023-05-27T17:26:26.878Z,101131.44
2023-05-27T17:28:54.373Z,101128.97
2023-05-27T17:31:21.184Z,101130.25
2023-05-27T17:33:47.984Z,101127.44
2023-05-27T17:36:14.713Z,101129.91
2023-05-27T17:38:42.648Z,101129.09
2023-05-27T17:41:11.193Z,101129.09
2023-05-27T17:43:38.384Z,101123.47
2023-05-27T17:46:05.205Z,101119.03
2023-05-27T17:48:32.141Z,101112.25
2023-05-27T17:50:58.870Z,101122.66
2023-05-27T17:53:25.651Z,101108.63
2023-05-27T17:55:52.818Z,101123.47
2023-05-27T17:58:19.449Z,101111.44
2023-05-27T18:00:48.760Z,101119.03
2023-05-27T18:03:15.975Z,101113.44
2023-05-27T18:05:43.150Z,101125.84
2023-05-27T18:08:10.268Z,101121.84
2023-05-27T18:10:38.296Z,101123.47
2023-05-27T18:13:05.134Z,101123.47
2023-05-27T18:15:31.946Z,101117.75
2023-05-27T18:17:58.739Z,101122.53
2023-05-27T18:20:25.817Z,101119.28
2023-05-27T18:22:52.670Z,101122.91
2023-05-27T18:25:19.486Z,101118.47
2023-05-27T18:27:46.395Z,101124.91
2023-05-27T18:30:13.392Z,101121.63
2023-05-27T18:32:51.459Z,101122.47
2023-05-27T18:37:49.818Z,101121.16
2023-05-27T18:40:16.986Z,101131.22
2023-05-27T18:42:44.870Z,101129.56
2023-05-27T18:45:11.980Z,101130.75
2023-05-27T18:47:38.819Z,101133.56
2023-05-27T18:50:06.163Z,101127.50
2023-05-27T18:52:32.796Z,101135.91
2023-05-27T18:54:59.448Z,101123.88
2023-05-27T18:57:26.401Z,101133.09
2023-05-27T18:59:54.254Z,101135.91
2023-05-27T19:02:22.951Z,101133.09
2023-05-27T19:04:50.425Z,101128.66
2023-05-27T19:07:18.396Z,101135.41
2023-05-27T19:09:50.669Z,101139.41
2023-05-27T19:12:17.561Z,101131.00
2023-05-27T19:14:44.286Z,101129.34
2023-05-27T19:17:10.936Z,101125.97
2023-05-27T19:19:37.723Z,101127.97
2023-05-27T19:22:04.620Z,101130.31
2023-05-27T19:24:31.362Z,101130.66
2023-05-27T19:26:58.316Z,101134.63
2023-05-27T19:29:25.148Z,101135.44
2023-05-27T19:31:52.076Z,101131.47
2023-05-27T19:34:21.801Z,101129.38
2023-05-27T19:36:48.489Z,101129.38
2023-05-27T19:39:15.205Z,101129.38
2023-05-27T19:41:41.852Z,101136.16
2023-05-27T19:44:08.549Z,101137.31
2023-05-27T19:46:35.556Z,101140.13
2023-05-27T19:49:02.700Z,101131.84
2023-05-27T19:51:29.824Z,101138.84
2023-05-27T19:53:57.951Z,101141.28
2023-05-27T19:56:25.829Z,101142.91
2023-05-27T19:58:53.345Z,101148.03
2023-05-27T20:01:20.525Z,101150.06
2023-05-27T20:03:47.855Z,101149.22
2023-05-27T20:06:14.894Z,101150.84
2023-05-27T20:08:43.774Z,101154.00
2023-05-27T20:11:14.141Z,101150.38
2023-05-27T20:13:42.142Z,101151.66
2023-05-27T20:16:09.104Z,101147.59
2023-05-27T20:18:35.788Z,101150.06
2023-05-27T20:21:02.677Z,101149.56
2023-05-27T20:23:29.685Z,101148.41
2023-05-27T20:25:56.712Z,101148.41
2023-05-27T20:28:23.392Z,101152.84
2023-05-27T20:30:52.790Z,101149.31
2023-05-27T20:33:19.859Z,101148.53
2023-05-27T20:35:46.868Z,101148.53
2023-05-27T20:38:15.653Z,101157.72
2023-05-27T20:40:43.578Z,101149.31
2023-05-27T20:43:10.540Z,101155.75
2023-05-27T20:45:38.164Z,101146.88
2023-05-27T20:48:07.462Z,101146.88
2023-05-27T20:50:34.418Z,101146.50
2023-05-27T20:53:07.459Z,101150.50
2023-05-27T20:55:35.197Z,101149.31
2023-05-27T20:58:02.478Z,101150.50
2023-05-27T21:00:29.277Z,101143.72
2023-05-27T21:02:56.194Z,101144.06
2023-05-27T21:05:23.101Z,101150.84
2023-05-27T21:07:50.954Z,101149.69
2023-05-27T21:10:18.119Z,101142.91
2023-05-27T21:12:44.935Z,101145.72
2023-05-27T21:15:11.913Z,101141.28
2023-05-27T21:17:38.644Z,101137.31
2023-05-27T21:20:06.179Z,101143.25
2023-05-27T21:22:32.932Z,101137.66
2023-05-27T21:25:08.435Z,101137.31
2023-05-27T21:27:35.352Z,101134.50
2023-05-27T21:30:02.263Z,101138.94
2023-05-27T21:32:29.096Z,101137.31
2023-05-27T21:34:55.963Z,101132.50
2023-05-27T21:37:22.848Z,101139.75
2023-05-27T21:39:49.761Z,101130.06
2023-05-27T21:42:19.306Z,101135.22
2023-05-27T21:44:46.229Z,101131.72
2023-05-27T21:47:13.114Z,101134.03
2023-05-27T21:49:39.758Z,101124.81
2023-05-27T21:52:06.566Z,101129.25
2023-05-27T21:54:33.442Z,101122.81
2023-05-27T21:57:00.414Z,101118.97
2023-05-27T21:59:27.140Z,101118.97
2023-05-27T22:01:53.985Z,101118.84
2023-05-27T22:04:21.196Z,101118.84
2023-05-27T22:06:48.077Z,101122.94
2023-05-27T22:09:15.135Z,101116.50
2023-05-27T22:11:42.057Z,101109.97
2023-05-27T22:14:08.914Z,101117.31
2023-05-27T22:16:35.997Z,101113.63
2023-05-27T22:19:03.191Z,101108.34
2023-05-27T22:21:30.533Z,101109.97
2023-05-27T22:23:57.713Z,101105.53
2023-05-27T22:26:24.598Z,101101.00
2023-05-27T22:28:51.363Z,101104.38
2023-05-27T22:31:18.372Z,101107.63
2023-05-27T22:33:45.328Z,101113.25
2023-05-27T22:36:12.287Z,101108.78
2023-05-27T22:38:39.188Z,101113.25
2023-05-27T22:41:06.239Z,101111.59
2023-05-27T22:43:33.069Z,101107.88
2023-05-27T22:45:59.884Z,101108.59
2023-05-27T22:48:26.733Z,101105.78
2023-05-27T22:50:53.342Z,101104.97
2023-05-27T22:53:20.046Z,101103.81
2023-05-27T22:55:46.825Z,101104.13
2023-05-27T22:58:13.654Z,101096.91
2023-05-27T23:00:40.379Z,101095.28
2023-05-27T23:03:07.144Z,101101.59
2023-05-27T23:05:34.045Z,101103.22
2023-05-27T23:08:01.069Z,101095.88
2023-05-27T23:10:27.866Z,101095.03
2023-05-27T23:12:54.603Z,101096.69
2023-05-27T23:15:21.494Z,101095.53
2023-05-27T23:17:49.040Z,101092.94
2023-05-27T23:20:16.039Z,101092.16
2023-05-27T23:22:42.842Z,101090.50
2023-05-27T23:25:09.557Z,101094.81
2023-05-27T23:27:36.865Z,101089.22
2023-05-27T23:30:04.084Z,101086.06
2023-05-27T23:32:30.990Z,101086.75
2023-05-27T23:34:57.683Z,101084.31
2023-05-27T23:37:24.635Z,101080.34
2023-05-27T23:39:51.501Z,101083.88
2023-05-27T23:42:18.303Z,101085.47
2023-05-27T23:44:45.058Z,101079.88
2023-05-27T23:47:11.757Z,101085.84
2023-05-27T23:49:38.428Z,101086.31
2023-05-27T23:52:05.373Z,101084.66
2023-05-27T23:54:34.455Z,101079.41
2023-05-27T23:57:02.294Z,101084.56
2023-05-27T23:59:29.032Z,101078.97
